Time;durP1;ratioP1;P1;durP2;ratioP2;P2;SDS_P1;SDS_P2;PMS_P1;PMS_P2;Temp;Humidity;BMP_temperature;BMP_pressure;BME280_temperature;BME280_humidity;BME280_pressure;Samples;Min_cycle;Max_cycle;Signal;HPM_P1;HPM_P2
2022/06/27 00:02:03;;;;;;;1.00;0.40;;;23.40;64.50;24.00;96061.00;;;;5038356;28;20208;-84
2022/06/27 00:04:31;;;;;;;2.73;0.30;;;23.40;64.60;24.00;96052.00;;;;5037349;28;20215;-84
2022/06/27 00:06:59;;;;;;;0.40;0.40;;;23.30;64.80;24.00;96050.00;;;;5050959;28;20225;-83
2022/06/27 00:09:26;;;;;;;0.77;0.40;;;23.30;64.90;24.00;96052.00;;;;5053759;28;20240;-84
2022/06/27 00:11:53;;;;;;;0.40;0.40;;;23.30;65.10;23.90;96043.00;;;;5055646;28;20248;-84
2022/06/27 00:14:20;;;;;;;0.40;0.40;;;23.30;65.10;23.90;96041.00;;;;5056306;28;20215;-83
2022/06/27 00:16:48;;;;;;;0.40;0.40;;;23.30;65.30;23.90;96041.00;;;;5053614;28;20256;-84
2022/06/27 00:19:15;;;;;;;0.40;0.40;;;23.30;65.30;23.90;96046.00;;;;5048917;28;20663;-83
2022/06/27 00:21:44;;;;;;;0.40;0.40;;;23.20;65.30;23.90;96048.00;;;;5034591;28;20212;-84
2022/06/27 00:24:11;;;;;;;0.40;0.40;;;23.20;65.50;23.80;96048.00;;;;5049970;28;20249;-83
2022/06/27 00:26:39;;;;;;;0.70;0.60;;;23.20;65.60;23.80;96034.00;;;;5054355;28;20856;-83
2022/06/27 00:29:06;;;;;;;0.30;0.30;;;23.20;65.70;23.80;96030.00;;;;5055750;28;20715;-83
2022/06/27 00:31:33;;;;;;;0.50;0.50;;;23.20;65.80;23.80;96034.00;;;;5062964;28;20222;-83
2022/06/27 00:34:00;;;;;;;0.60;0.60;;;23.10;66.00;23.80;96053.00;;;;5065567;28;20220;-83
2022/06/27 00:36:27;;;;;;;1.70;0.57;;;23.10;66.10;23.80;96046.00;;;;5066453;28;20639;-83
2022/06/27 00:38:56;;;;;;;0.47;0.47;;;23.10;66.20;23.80;96036.00;;;;5055818;28;20201;-83
2022/06/27 00:41:23;;;;;;;0.40;0.40;;;23.10;66.40;23.80;96033.00;;;;5070296;28;20205;-83
2022/06/27 00:43:51;;;;;;;0.67;0.67;;;23.10;66.40;23.80;96055.00;;;;5052663;28;20232;-83
2022/06/27 00:46:18;;;;;;;0.43;0.43;;;23.10;66.70;23.80;96060.00;;;;5048491;28;20241;-83
2022/06/27 00:48:45;;;;;;;0.40;0.40;;;23.10;66.70;23.80;96072.00;;;;5045256;28;20242;-82
2022/06/27 00:51:12;;;;;;;0.60;0.40;;;23.10;66.70;23.80;96075.00;;;;5053134;28;20250;-83
2022/06/27 00:53:41;;;;;;;1.00;0.50;;;23.10;66.80;23.80;96084.00;;;;5053767;28;20305;-83
2022/06/27 00:56:10;;;;;;;1.53;0.60;;;23.10;66.90;23.80;96075.00;;;;5073104;28;20232;-83
2022/06/27 00:58:37;;;;;;;1.53;0.53;;;23.10;66.90;23.80;96075.00;;;;5061872;28;20204;-83
2022/06/27 01:01:05;;;;;;;0.73;0.60;;;23.10;67.00;23.70;96081.00;;;;5046612;28;20280;-83
2022/06/27 01:03:32;;;;;;;0.60;0.60;;;23.10;67.10;23.70;96088.00;;;;5053000;28;20252;-83
2022/06/27 01:05:59;;;;;;;0.73;0.57;;;23.10;67.20;23.70;96096.00;;;;5052482;28;20224;-83
2022/06/27 01:08:26;;;;;;;0.60;0.50;;;23.10;67.30;23.70;96090.00;;;;5052607;28;20236;-83
2022/06/27 01:10:54;;;;;;;0.70;0.70;;;23.00;67.30;23.70;96115.00;;;;5052493;28;20197;-83
2022/06/27 01:13:23;;;;;;;0.97;0.60;;;23.00;67.20;23.60;96104.00;;;;5052020;28;20263;-84
2022/06/27 01:15:51;;;;;;;0.83;0.60;;;23.00;67.20;23.60;96097.00;;;;5045575;28;20690;-84
2022/06/27 01:18:19;;;;;;;1.07;0.70;;;23.00;67.40;23.60;96091.00;;;;5051016;28;20279;-83
2022/06/27 01:20:47;;;;;;;0.60;0.60;;;22.90;68.20;23.60;96082.00;;;;5052353;28;20265;-83
2022/06/27 01:23:16;;;;;;;1.13;0.60;;;22.90;67.70;23.50;96086.00;;;;5051985;28;20252;-83
2022/06/27 01:25:43;;;;;;;0.60;0.60;;;22.90;68.00;23.50;96086.00;;;;5054761;28;20243;-83
2022/06/27 01:28:10;;;;;;;0.83;0.50;;;22.90;68.80;23.50;96088.00;;;;5070447;28;20217;-83
2022/06/27 01:30:37;;;;;;;0.60;0.60;;;22.90;68.20;23.50;96086.00;;;;5050977;28;20236;-83
2022/06/27 01:33:05;;;;;;;1.10;0.50;;;22.90;68.30;23.50;96093.00;;;;5050953;28;20258;-83
2022/06/27 01:35:32;;;;;;;0.70;0.70;;;22.90;68.40;23.50;96093.00;;;;5051978;28;20236;-84
2022/06/27 01:37:59;;;;;;;0.73;0.73;;;22.80;68.40;23.50;96094.00;;;;5060584;28;20619;-83
2022/06/27 01:40:28;;;;;;;0.63;0.50;;;22.80;68.50;23.50;96105.00;;;;5051911;28;20189;-83
2022/06/27 01:42:57;;;;;;;0.70;0.70;;;22.80;68.70;23.40;96102.00;;;;5052343;28;20252;-83
2022/06/27 01:45:24;;;;;;;0.70;0.70;;;22.80;68.70;23.40;96108.00;;;;5051711;28;20201;-84
2022/06/27 01:47:51;;;;;;;0.70;0.70;;;22.80;68.70;23.40;96114.00;;;;5061590;28;20200;-83
2022/06/27 01:50:24;;;;;;;1.17;0.77;;;22.80;68.90;23.40;96115.00;;;;5068078;28;20658;-83
2022/06/27 01:52:53;;;;;;;1.07;0.70;;;22.70;69.10;23.40;96113.00;;;;5032420;28;20653;-83
2022/06/27 01:55:21;;;;;;;0.80;0.80;;;22.70;69.20;23.40;96110.00;;;;5038212;28;20295;-83
2022/06/27 01:57:50;;;;;;;0.97;0.93;;;22.70;69.40;23.30;96100.00;;;;5051266;28;20228;-83
2022/06/27 02:00:18;;;;;;;0.70;0.70;;;22.70;69.50;23.30;96113.00;;;;5056977;28;20219;-83
2022/06/27 02:02:46;;;;;;;1.00;0.70;;;22.70;69.60;23.30;96115.00;;;;5043547;28;20251;-83
2022/06/27 02:05:13;;;;;;;1.00;1.00;;;22.70;69.80;23.30;96106.00;;;;5051524;28;20691;-84
2022/06/27 02:07:44;;;;;;;1.37;0.90;;;22.60;69.70;23.30;96113.00;;;;5051790;28;20613;-83
2022/06/27 02:10:11;;;;;;;0.60;0.60;;;22.60;69.80;23.30;96116.00;;;;5049649;28;20203;-83
2022/06/27 02:12:40;;;;;;;0.83;0.83;;;22.60;69.90;23.30;96110.00;;;;5044015;28;20603;-83
2022/06/27 02:15:10;;;;;;;1.70;1.03;;;22.60;70.00;23.30;96106.00;;;;5046827;28;20243;-83
2022/06/27 02:17:37;;;;;;;0.60;0.60;;;22.60;70.00;23.30;96100.00;;;;5051132;28;20284;-83
2022/06/27 02:20:07;;;;;;;2.10;0.63;;;22.60;70.00;23.30;96105.00;;;;5038981;28;20263;-83
2022/06/27 02:22:34;;;;;;;1.53;1.03;;;22.60;70.00;23.20;96104.00;;;;5051944;28;20259;-83
2022/06/27 02:25:01;;;;;;;0.60;0.60;;;22.60;70.10;23.20;96113.00;;;;5042571;28;20238;-84
2022/06/27 02:27:31;;;;;;;0.63;0.63;;;22.60;70.20;23.20;96110.00;;;;5040923;28;20197;-83
2022/06/27 02:29:58;;;;;;;0.80;0.80;;;22.60;70.30;23.20;96117.00;;;;5051633;28;20189;-83
2022/06/27 02:32:28;;;;;;;0.80;0.80;;;22.50;70.30;23.20;96123.00;;;;5051554;28;20221;-83
2022/06/27 02:34:58;;;;;;;0.93;0.93;;;22.50;70.50;23.20;96120.00;;;;5041916;28;20207;-83
2022/06/27 02:37:26;;;;;;;0.80;0.80;;;22.50;70.70;23.20;96113.00;;;;5051733;28;20197;-84
2022/06/27 02:39:55;;;;;;;1.30;1.20;;;22.50;70.70;23.10;96112.00;;;;5036471;28;20695;-83
2022/06/27 02:42:25;;;;;;;1.00;1.00;;;22.50;70.80;23.10;96108.00;;;;5040959;28;20698;-84
2022/06/27 02:44:54;;;;;;;1.20;1.10;;;22.50;70.90;23.10;96134.00;;;;5059277;28;20232;-83
2022/06/27 02:47:22;;;;;;;1.30;1.00;;;22.50;71.10;23.10;96298.00;;;;5055210;28;20228;-83
2022/06/27 02:49:51;;;;;;;0.97;0.97;;;22.40;71.10;23.00;96196.00;;;;5056865;28;20196;-83
2022/06/27 02:52:28;;;;;;;1.40;1.10;;;22.40;71.30;23.00;96296.00;;;;5059124;28;20256;-83
2022/06/27 02:55:04;;;;;;;1.27;1.23;;;22.40;71.60;23.00;96215.00;;;;5055046;28;20201;-83
2022/06/27 02:57:44;;;;;;;1.03;1.00;;;22.40;71.70;23.00;96284.00;;;;5054581;28;20627;-84
2022/06/27 03:00:13;;;;;;;1.30;1.20;;;22.40;71.90;23.10;96259.00;;;;5047102;28;20279;-83
2022/06/27 03:02:43;;;;;;;2.20;0.90;;;22.40;71.90;23.10;96218.00;;;;5048754;28;20641;-84
2022/06/27 03:05:12;;;;;;;1.00;1.00;;;22.50;72.10;23.10;96265.00;;;;5054929;28;20201;-84
2022/06/27 03:07:42;;;;;;;0.90;0.90;;;22.50;72.10;23.20;96197.00;;;;5053822;28;20244;-83
2022/06/27 03:10:11;;;;;;;2.53;1.20;;;22.50;72.10;23.30;96245.00;;;;5051664;28;20690;-83
2022/06/27 03:12:39;;;;;;;1.13;1.10;;;22.60;72.20;23.30;96235.00;;;;5054491;28;20224;-84
2022/06/27 03:15:08;;;;;;;0.90;0.90;;;22.60;72.20;23.40;96245.00;;;;5064658;28;20284;-83
2022/06/27 03:17:35;;;;;;;1.20;1.00;;;22.70;72.10;23.40;96217.00;;;;5054165;28;20207;-83
2022/06/27 03:20:03;;;;;;;0.90;0.90;;;22.70;71.90;23.40;96195.00;;;;5054924;28;20219;-84
2022/06/27 03:22:31;;;;;;;0.77;0.77;;;22.80;71.90;23.50;96211.00;;;;5054552;28;20627;-83
2022/06/27 03:24:59;;;;;;;1.03;1.00;;;22.80;71.80;23.50;96230.00;;;;5043347;28;20280;-83
2022/06/27 03:27:26;;;;;;;1.00;1.00;;;22.80;71.80;23.60;96207.00;;;;5054198;28;20232;-83
2022/06/27 03:29:53;;;;;;;0.80;0.80;;;22.90;71.60;23.60;96219.00;;;;5057717;28;20619;-84
2022/06/27 03:32:20;;;;;;;0.80;0.80;;;22.90;71.60;23.70;96220.00;;;;5053378;28;20307;-84
2022/06/27 03:34:47;;;;;;;0.70;0.70;;;22.90;71.40;23.70;96227.00;;;;5047758;28;20225;-84
2022/06/27 03:37:14;;;;;;;0.90;0.90;;;23.00;71.40;23.70;96230.00;;;;5060395;28;20199;-83
2022/06/27 03:39:43;;;;;;;0.90;0.90;;;23.00;72.00;23.70;96232.00;;;;5053918;28;20251;-83
2022/06/27 03:42:10;;;;;;;1.10;0.90;;;23.00;71.20;23.70;96228.00;;;;5050584;28;20228;-83
2022/06/27 03:44:37;;;;;;;0.90;0.90;;;23.00;71.20;23.70;96221.00;;;;5054350;28;20285;-83
2022/06/27 03:47:05;;;;;;;0.80;0.80;;;23.00;71.10;23.70;96216.00;;;;5055142;28;20195;-83
2022/06/27 03:52:16;;;;;;;0.80;0.70;;;23.00;70.90;23.80;96240.00;;;;5054291;28;20664;-83
2022/06/27 03:54:45;;;;;;;0.80;0.80;;;23.00;70.90;23.80;96239.00;;;;5052785;28;20233;-83
2022/06/27 03:57:12;;;;;;;1.00;0.90;;;23.00;71.00;23.70;96240.00;;;;5042560;28;20286;-83
2022/06/27 03:59:39;;;;;;;1.10;0.80;;;23.00;70.90;23.70;96245.00;;;;5058266;28;20233;-83
2022/06/27 04:02:09;;;;;;;0.93;0.90;;;23.10;71.00;23.70;96248.00;;;;5057997;28;20194;-84
2022/06/27 04:04:36;;;;;;;2.30;1.00;;;23.00;70.90;23.70;96247.00;;;;5051940;28;20283;-83
2022/06/27 04:07:04;;;;;;;0.90;0.90;;;23.00;70.90;23.70;96239.00;;;;5053705;28;20671;-83
2022/06/27 04:09:31;;;;;;;0.80;0.80;;;23.00;71.00;23.70;96243.00;;;;5053656;28;20206;-83
2022/06/27 04:12:00;;;;;;;0.90;0.90;;;23.00;71.10;23.70;96239.00;;;;5053574;28;20236;-83
2022/06/27 04:14:27;;;;;;;0.90;0.90;;;23.00;71.10;23.70;96230.00;;;;5052976;28;20311;-83
2022/06/27 04:16:54;;;;;;;0.80;0.80;;;23.00;71.20;23.70;96233.00;;;;5061634;28;20223;-83
2022/06/27 04:19:21;;;;;;;1.37;0.90;;;23.00;71.40;23.70;96242.00;;;;5058137;28;20225;-83
2022/06/27 04:21:51;;;;;;;0.80;0.80;;;23.00;71.40;23.70;96243.00;;;;5053875;28;20229;-84
2022/06/27 04:24:18;;;;;;;0.70;0.70;;;22.90;71.60;23.70;96250.00;;;;5052962;28;20222;-85
2022/06/27 04:26:45;;;;;;;2.37;1.20;;;23.00;71.70;23.70;96245.00;;;;5053588;28;20201;-84
2022/06/27 04:29:14;;;;;;;0.90;0.90;;;23.00;71.60;23.70;96244.00;;;;5048867;28;20744;-85
2022/06/27 04:31:41;;;;;;;2.30;0.97;;;23.00;71.90;23.60;96243.00;;;;5043013;28;20224;-84
2022/06/27 04:34:12;;;;;;;0.90;0.90;;;23.00;72.00;23.60;96241.00;;;;5053277;28;20232;-84
2022/06/27 04:36:39;;;;;;;1.30;1.00;;;22.90;71.80;23.60;96234.00;;;;5059373;28;20205;-84
2022/06/27 04:39:08;;;;;;;1.57;1.20;;;22.90;72.00;23.60;96220.00;;;;5056405;28;20193;-83
2022/06/27 04:41:35;;;;;;;1.20;0.90;;;22.90;72.20;23.60;96229.00;;;;5054399;28;20200;-84
2022/06/27 04:44:02;;;;;;;1.50;0.83;;;22.90;72.30;23.60;96232.00;;;;5059560;28;20248;-82
2022/06/27 04:46:31;;;;;;;1.07;1.07;;;22.90;72.50;23.60;96233.00;;;;5054077;28;20195;-83
2022/06/27 04:48:59;;;;;;;0.90;0.90;;;22.90;72.80;23.60;96244.00;;;;5046882;28;20200;-83
2022/06/27 04:51:26;;;;;;;2.33;1.20;;;22.90;72.90;23.60;96253.00;;;;5045537;28;20199;-82
2022/06/27 04:53:53;;;;;;;0.80;0.80;;;22.90;72.90;23.70;96254.00;;;;5046654;28;20272;-82
2022/06/27 04:56:20;;;;;;;1.57;1.10;;;22.90;73.00;23.70;96256.00;;;;5054950;28;20243;-83
2022/06/27 04:58:48;;;;;;;1.03;0.97;;;22.90;73.10;23.70;96264.00;;;;5049193;28;20196;-83
2022/06/27 05:01:15;;;;;;;0.90;0.90;;;22.90;72.90;23.70;96264.00;;;;5044833;28;20255;-83
2022/06/27 05:03:43;;;;;;;1.47;1.27;;;22.90;72.80;23.70;96264.00;;;;5051380;28;20278;-82
2022/06/27 05:06:11;;;;;;;1.20;0.80;;;22.90;72.90;23.70;96269.00;;;;5047621;28;20285;-82
2022/06/27 05:08:38;;;;;;;0.80;0.80;;;23.00;72.90;23.80;96264.00;;;;5056343;28;20288;-83
2022/06/27 05:11:05;;;;;;;1.47;1.00;;;23.00;73.20;23.80;96266.00;;;;5053680;28;20204;-83
2022/06/27 05:13:34;;;;;;;1.10;1.10;;;23.00;73.20;23.90;96274.00;;;;5061162;22;20224;-88
2022/06/27 05:16:01;;;;;;;2.30;1.10;;;23.00;73.30;23.90;96274.00;;;;5050718;28;20641;-88
2022/06/27 05:18:28;;;;;;;1.00;1.00;;;23.10;73.40;24.00;96271.00;;;;5041068;28;20230;-87
2022/06/27 05:20:57;;;;;;;1.40;1.30;;;23.10;73.00;24.00;96267.00;;;;5045736;28;20297;-87
2022/06/27 05:23:24;;;;;;;0.97;0.97;;;23.20;73.80;24.00;96267.00;;;;5031523;28;20228;-88
2022/06/27 05:25:51;;;;;;;1.43;1.07;;;23.20;72.90;24.00;96266.00;;;;5029688;28;20342;-87
2022/06/27 05:28:19;;;;;;;1.10;1.00;;;23.20;72.90;24.10;96257.00;;;;5031112;28;20278;-88
2022/06/27 05:30:47;;;;;;;1.10;1.10;;;23.30;72.70;24.10;96253.00;;;;5030947;28;20689;-87
2022/06/27 05:33:14;;;;;;;0.90;0.90;;;23.30;72.60;24.20;96277.00;;;;5031570;28;20267;-88
2022/06/27 05:35:41;;;;;;;1.10;0.90;;;23.30;72.80;24.20;96285.00;;;;5029979;28;20279;-87
2022/06/27 05:38:10;;;;;;;1.03;1.00;;;23.40;72.80;24.20;96294.00;;;;5031183;28;20195;-87
2022/06/27 05:40:38;;;;;;;1.63;1.10;;;23.40;72.90;24.30;96288.00;;;;5030547;28;20237;-87
2022/06/27 05:43:05;;;;;;;1.00;1.00;;;23.40;72.80;24.30;96288.00;;;;5031023;28;20195;-88
2022/06/27 05:45:33;;;;;;;1.20;1.20;;;23.50;72.90;24.30;96296.00;;;;5028243;28;20203;-87
2022/06/27 05:48:02;;;;;;;1.27;0.90;;;23.50;72.70;24.40;96296.00;;;;5029885;28;20853;-86
2022/06/27 05:50:30;;;;;;;1.27;1.17;;;23.50;72.70;24.40;96294.00;;;;5028313;28;20670;-87
2022/06/27 05:52:59;;;;;;;1.57;1.20;;;23.60;72.60;24.40;96297.00;;;;5030845;28;20830;-87
2022/06/27 05:55:28;;;;;;;1.00;1.00;;;23.60;72.50;24.40;96297.00;;;;5033297;28;22229;-87
2022/06/27 05:57:56;;;;;;;1.03;1.00;;;23.70;72.60;24.50;96297.00;;;;5039253;28;20196;-87
2022/06/27 06:00:24;;;;;;;0.93;0.93;;;23.70;72.30;24.50;96306.00;;;;5036664;28;20193;-88
2022/06/27 06:02:54;;;;;;;0.93;0.93;;;23.70;72.50;24.50;96299.00;;;;5032093;28;20210;-87
2022/06/27 06:05:24;;;;;;;1.20;0.87;;;23.80;72.70;24.60;96304.00;;;;5033684;28;20283;-88
2022/06/27 06:07:52;;;;;;;0.80;0.80;;;23.80;72.80;24.60;96304.00;;;;5026233;28;20665;-87
2022/06/27 06:10:20;;;;;;;1.67;1.03;;;23.90;72.90;24.70;96300.00;;;;5029256;28;20227;-88
2022/06/27 06:12:50;;;;;;;1.77;1.07;;;23.90;72.70;24.70;96301.00;;;;5029336;28;20221;-88
2022/06/27 06:15:18;;;;;;;1.53;1.00;;;23.90;72.50;24.70;96291.00;;;;5039681;28;20613;-88
2022/06/27 06:17:46;;;;;;;2.10;1.07;;;23.90;72.40;24.80;96300.00;;;;5040763;28;20269;-88
2022/06/27 06:20:13;;;;;;;1.27;1.20;;;24.00;72.40;24.80;96303.00;;;;5036068;28;20322;-87
2022/06/27 06:22:41;;;;;;;1.40;1.10;;;24.00;72.40;24.90;96310.00;;;;5035708;28;20219;-87
2022/06/27 06:25:09;;;;;;;2.70;1.20;;;24.10;72.30;24.90;96306.00;;;;5036517;28;20208;-87
2022/06/27 06:27:38;;;;;;;0.90;0.90;;;24.20;72.30;25.00;96293.00;;;;5036275;28;20215;-88
2022/06/27 06:30:09;;;;;;;1.10;1.10;;;24.20;71.90;25.00;96294.00;;;;5034909;28;20200;-87
2022/06/27 06:32:36;;;;;;;1.83;1.33;;;24.30;71.70;25.10;96303.00;;;;5024108;28;20317;-87
2022/06/27 06:35:05;;;;;;;1.50;1.33;;;24.30;71.70;25.20;96301.00;;;;5020437;28;20244;-87
2022/06/27 06:37:32;;;;;;;1.80;1.40;;;24.40;71.90;25.20;96302.00;;;;5032779;28;20203;-87
2022/06/27 06:40:00;;;;;;;1.17;1.07;;;24.60;71.70;25.30;96310.00;;;;5023896;28;20275;-87
2022/06/27 06:42:27;;;;;;;1.00;1.00;;;24.40;71.70;25.30;96298.00;;;;5028706;28;20277;-87
2022/06/27 06:44:59;;;;;;;1.60;1.20;;;24.50;71.90;25.40;96303.00;;;;5026525;28;20198;-88
2022/06/27 06:47:29;;;;;;;1.47;1.37;;;24.60;71.40;25.50;96294.00;;;;5035757;28;20201;-87
2022/06/27 06:49:56;;;;;;;1.47;1.20;;;24.60;71.40;25.50;96298.00;;;;5035287;28;20276;-87
2022/06/27 06:52:24;;;;;;;1.50;1.40;;;24.70;70.90;25.60;96295.00;;;;5034624;28;20217;-88
2022/06/27 06:54:51;;;;;;;1.30;1.20;;;24.70;71.70;25.60;96298.00;;;;5032114;28;20329;-87
2022/06/27 06:57:19;;;;;;;1.40;1.30;;;24.80;71.00;25.70;96299.00;;;;5030024;28;20224;-88
2022/06/27 06:59:46;;;;;;;1.27;1.17;;;24.90;71.30;25.80;96302.00;;;;5025676;28;20200;-87
2022/06/27 07:02:13;;;;;;;1.37;1.20;;;24.90;70.90;25.90;96300.00;;;;5033834;28;20244;-87
2022/06/27 07:04:42;;;;;;;1.37;1.03;;;25.00;70.70;26.00;96299.00;;;;5031104;28;20197;-87
2022/06/27 07:07:10;;;;;;;1.37;1.30;;;25.10;71.20;26.10;96301.00;;;;5031790;28;20197;-86
2022/06/27 07:09:40;;;;;;;1.80;1.40;;;25.20;71.30;26.30;96296.00;;;;5032183;28;20220;-88
2022/06/27 07:12:10;;;;;;;1.37;1.33;;;25.30;71.20;26.50;96299.00;;;;5031236;28;20225;-87
2022/06/27 07:14:37;;;;;;;1.30;1.30;;;25.50;71.50;26.70;96286.00;;;;5030634;28;20665;-88
2022/06/27 07:17:05;;;;;;;1.30;1.30;;;25.60;71.40;26.90;96289.00;;;;5034433;28;20228;-88
2022/06/27 07:19:33;;;;;;;3.10;1.37;;;25.80;71.20;27.00;96300.00;;;;5034924;28;20201;-88
2022/06/27 07:22:01;;;;;;;1.17;1.17;;;25.90;70.70;27.20;96295.00;;;;5032620;28;20220;-87
2022/06/27 07:24:28;;;;;;;1.20;1.20;;;26.00;70.40;27.40;96292.00;;;;5033221;28;20754;-87
2022/06/27 07:26:57;;;;;;;1.33;1.10;;;26.20;70.40;27.50;96288.00;;;;5032130;28;20274;-87
2022/06/27 07:29:25;;;;;;;1.83;1.50;;;26.30;70.40;27.70;96290.00;;;;5031173;28;20228;-88
2022/06/27 07:31:52;;;;;;;1.83;1.27;;;26.50;70.20;27.90;96286.00;;;;5027676;28;20287;-88
2022/06/27 07:34:21;;;;;;;1.40;1.30;;;26.70;70.20;28.10;96284.00;;;;5032701;28;20702;-87
2022/06/27 07:36:50;;;;;;;1.37;1.27;;;26.80;69.70;28.30;96283.00;;;;5037945;28;20186;-88
2022/06/27 07:39:18;;;;;;;1.57;1.47;;;27.00;69.50;28.40;96280.00;;;;5031150;28;20660;-87
2022/06/27 07:41:49;;;;;;;1.40;1.30;;;27.20;69.30;28.60;96286.00;;;;5033374;28;20237;-87
2022/06/27 07:44:17;;;;;;;1.60;1.30;;;27.30;68.80;28.80;96289.00;;;;5034742;28;20658;-87
2022/06/27 07:46:44;;;;;;;1.67;1.38;;;27.50;68.60;28.90;96291.00;;;;5032506;28;20247;-87
2022/06/27 07:49:11;;;;;;;1.45;1.20;;;27.60;68.50;29.10;96295.00;;;;5031971;28;20288;-88
2022/06/27 07:51:38;;;;;;;1.73;1.42;;;27.80;68.10;29.20;96287.00;;;;5033798;28;20237;-87
2022/06/27 07:54:06;;;;;;;1.10;1.10;;;27.90;67.40;29.40;96284.00;;;;5031270;28;20307;-87
2022/06/27 07:56:36;;;;;;;1.38;1.27;;;28.10;67.20;29.60;96289.00;;;;5033471;28;20678;-87
2022/06/27 07:59:05;;;;;;;1.55;1.10;;;28.20;67.20;29.70;96297.00;;;;5032831;28;20288;-87
2022/06/27 08:01:33;;;;;;;1.50;1.40;;;28.40;66.90;29.90;96302.00;;;;5033069;28;20275;-87
2022/06/27 08:04:02;;;;;;;1.00;1.00;;;28.50;67.00;30.00;96297.00;;;;5031875;28;20204;-87
2022/06/27 08:06:30;;;;;;;1.17;1.13;;;28.60;66.30;30.10;96307.00;;;;5031720;28;20221;-86
2022/06/27 08:09:00;;;;;;;1.17;1.10;;;28.70;65.50;30.30;96313.00;;;;5033892;28;20201;-87
2022/06/27 08:11:31;;;;;;;1.65;1.15;;;28.90;65.80;30.40;96308.00;;;;5025614;28;20217;-87
2022/06/27 08:14:05;;;;;;;1.08;1.08;;;29.00;65.10;30.60;96307.00;;;;5032074;28;20225;-86
2022/06/27 08:16:34;;;;;;;1.20;1.20;;;29.10;64.60;30.70;96311.00;;;;5029165;28;20688;-87
2022/06/27 08:19:03;;;;;;;1.05;0.95;;;29.30;64.50;30.90;96317.00;;;;5033224;28;20248;-87
2022/06/27 08:21:31;;;;;;;1.50;1.40;;;29.40;64.40;31.10;96315.00;;;;5030601;28;20757;-87
2022/06/27 08:24:02;;;;;;;1.30;1.30;;;29.60;64.20;31.30;96315.00;;;;5030059;28;20197;-87
2022/06/27 08:26:31;;;;;;;1.67;1.30;;;29.70;63.80;31.40;96314.00;;;;5036756;28;20189;-87
2022/06/27 08:29:00;;;;;;;0.90;0.90;;;29.80;63.50;31.60;96328.00;;;;5031937;28;20189;-87
2022/06/27 08:31:30;;;;;;;1.08;1.08;;;30.00;62.90;31.80;96325.00;;;;5032015;28;20217;-87
2022/06/27 08:34:01;;;;;;;1.30;1.10;;;30.20;62.70;31.90;96321.00;;;;5032292;28;20229;-84
2022/06/27 08:36:30;;;;;;;1.00;1.00;;;30.30;62.50;32.10;96321.00;;;;5031347;28;20228;-85
2022/06/27 08:38:59;;;;;;;2.08;1.17;;;30.50;62.20;32.30;96322.00;;;;5032334;28;20619;-85
2022/06/27 08:41:27;;;;;;;1.13;1.13;;;30.60;61.50;32.40;96319.00;;;;5030863;28;20734;-85
2022/06/27 08:44:00;;;;;;;1.10;1.10;;;30.70;62.10;32.60;96314.00;;;;5034622;28;20248;-85
2022/06/27 08:46:32;;;;;;;1.20;0.93;;;30.90;62.00;32.80;96317.00;;;;5032930;28;20217;-87
2022/06/27 08:48:59;;;;;;;0.95;0.95;;;31.10;62.30;33.00;96321.00;;;;5030971;28;20232;-87
2022/06/27 08:51:27;;;;;;;1.10;1.10;;;31.20;61.70;33.20;96318.00;;;;5026524;28;20768;-86
2022/06/27 08:53:55;;;;;;;1.48;1.15;;;31.30;61.00;33.30;96308.00;;;;5031444;28;20196;-86
2022/06/27 08:56:24;;;;;;;1.67;0.90;;;31.50;60.60;33.50;96310.00;;;;5031034;28;20543;-86
2022/06/27 08:58:55;;;;;;;1.00;1.00;;;31.60;60.30;33.60;96312.00;;;;5030790;28;20625;-86
2022/06/27 09:01:27;;;;;;;2.13;1.20;;;31.70;59.20;33.80;96302.00;;;;5028448;28;20209;-86
2022/06/27 09:04:01;;;;;;;0.80;0.80;;;31.80;59.40;33.90;96308.00;;;;5030355;28;20229;-86
2022/06/27 09:06:32;;;;;;;1.55;1.10;;;32.00;59.40;34.10;96308.00;;;;5032017;28;20221;-86
2022/06/27 09:09:06;;;;;;;1.02;1.02;;;32.10;59.30;34.30;96309.00;;;;5033105;28;20203;-86
2022/06/27 09:11:37;;;;;;;1.15;1.10;;;32.20;58.60;34.50;96315.00;;;;5036569;28;20228;-86
2022/06/27 09:14:06;;;;;;;1.25;1.13;;;32.30;58.70;34.70;96318.00;;;;5030247;28;20209;-86
2022/06/27 09:16:34;;;;;;;1.15;0.90;;;32.50;58.50;34.80;96311.00;;;;5031871;28;20208;-86
2022/06/27 09:19:04;;;;;;;1.10;1.10;;;32.60;58.20;34.90;96314.00;;;;5031921;28;20235;-86
2022/06/27 09:21:33;;;;;;;1.00;1.00;;;32.80;58.00;35.10;96315.00;;;;5032705;28;20213;-86
2022/06/27 09:24:01;;;;;;;0.90;0.90;;;33.00;57.70;35.20;96317.00;;;;5030515;28;20198;-86
2022/06/27 09:26:31;;;;;;;1.55;1.00;;;33.10;57.60;35.40;96315.00;;;;5031257;28;20197;-86
2022/06/27 09:29:00;;;;;;;1.25;1.20;;;33.30;57.60;35.50;96314.00;;;;5030705;28;20220;-86
2022/06/27 09:31:42;;;;;;;0.95;0.95;;;33.50;57.50;35.60;96304.00;;;;5032563;28;20248;-86
2022/06/27 09:34:15;;;;;;;1.08;1.08;;;33.60;56.70;35.80;96309.00;;;;5030955;28;20673;-86
2022/06/27 09:36:46;;;;;;;1.10;1.02;;;33.80;56.80;35.90;96311.00;;;;5033116;28;20200;-86
2022/06/27 09:39:28;;;;;;;0.90;0.90;;;34.00;57.00;36.00;96307.00;;;;5037770;28;20217;-86
2022/06/27 09:42:01;;;;;;;1.58;1.30;;;34.20;56.70;36.20;96299.00;;;;5038570;28;20303;-86
2022/06/27 09:44:32;;;;;;;0.98;0.98;;;34.30;56.30;36.30;96293.00;;;;5036656;28;20287;-86
2022/06/27 09:47:08;;;;;;;1.73;0.90;;;34.40;55.30;36.40;96297.00;;;;5038206;28;20211;-86
2022/06/27 09:49:41;;;;;;;0.88;0.85;;;34.60;55.20;36.50;96297.00;;;;5035659;28;20284;-86
2022/06/27 09:52:11;;;;;;;0.80;0.80;;;34.70;55.00;36.50;96296.00;;;;5058641;22;20316;-82
2022/06/27 09:54:43;;;;;;;0.82;0.82;;;34.80;54.70;36.60;96292.00;;;;5038685;28;20217;-82
2022/06/27 09:57:12;;;;;;;0.90;0.90;;;34.90;55.00;36.70;96292.00;;;;5029180;28;20225;-82
2022/06/27 09:59:41;;;;;;;0.80;0.80;;;35.00;54.90;36.80;96288.00;;;;5020665;28;20256;-82
2022/06/27 10:02:09;;;;;;;1.00;0.90;;;35.00;54.70;37.00;96287.00;;;;5002218;28;20285;-82
2022/06/27 10:04:39;;;;;;;0.70;0.70;;;35.20;54.20;37.20;96300.00;;;;5000679;28;20257;-82
2022/06/27 10:07:10;;;;;;;0.85;0.85;;;35.30;53.80;37.30;96291.00;;;;5000226;28;20299;-82
2022/06/27 10:09:38;;;;;;;0.70;0.70;;;35.50;53.50;37.50;96297.00;;;;5000371;28;20214;-82
2022/06/27 10:12:26;;;;;;;1.15;0.90;;;35.60;53.50;37.60;96293.00;;;;5001174;28;20213;-82
2022/06/27 10:15:26;;;;;;;0.80;0.80;;;35.70;51.10;37.70;96288.00;;;;5017590;28;20249;-83
2022/06/27 10:18:02;;;;;;;0.88;0.80;;;35.90;49.60;37.80;96298.00;;;;5018223;28;20221;-83
2022/06/27 10:20:37;;;;;;;0.60;0.60;;;36.10;51.10;37.80;96291.00;;;;5003667;28;20190;-83
2022/06/27 10:23:28;;;;;;;0.80;0.80;;;36.20;50.90;37.80;96295.00;;;;4994097;28;20200;-83
2022/06/27 10:25:57;;;;;;;0.60;0.60;;;36.40;50.40;37.90;96292.00;;;;4993398;28;20245;-83
2022/06/27 10:28:25;;;;;;;2.05;0.70;;;36.60;50.50;37.90;96300.00;;;;4994080;28;20218;-83
2022/06/27 10:30:55;;;;;;;0.93;0.90;;;36.70;50.20;38.00;96295.00;;;;4996485;28;20252;-83
2022/06/27 10:33:41;;;;;;;0.93;0.90;;;36.90;49.30;38.00;96293.00;;;;5013178;28;20248;-83
2022/06/27 10:36:16;;;;;;;0.80;0.80;;;37.10;48.40;38.00;96297.00;;;;5013395;28;20206;-83
2022/06/27 10:38:57;;;;;;;0.82;0.82;;;37.10;48.50;38.10;96299.00;;;;5013388;28;20634;-83
2022/06/27 10:41:42;;;;;;;0.70;0.70;;;37.30;48.00;38.10;96296.00;;;;5014259;28;20555;-83
2022/06/27 10:44:31;;;;;;;0.70;0.70;;;37.40;48.40;38.10;96292.00;;;;5015211;28;20244;-83
2022/06/27 10:46:58;;;;;;;0.80;0.80;;;37.50;49.30;38.10;96292.00;;;;5018648;28;20233;-83
2022/06/27 10:49:28;;;;;;;1.27;0.98;;;37.50;49.20;38.10;96292.00;;;;5019791;28;20205;-83
2022/06/27 10:52:33;;;;;;;1.20;0.88;;;37.60;48.40;38.10;96288.00;;;;5020695;28;20659;-83
2022/06/27 10:55:02;;;;;;;0.70;0.70;;;37.70;48.20;38.10;96282.00;;;;5019090;28;20229;-84
2022/06/27 10:57:46;;;;;;;1.00;0.90;;;37.80;48.90;38.10;96281.00;;;;5051612;23;20220;-84
2022/06/27 11:00:39;;;;;;;3.35;0.80;;;37.80;47.80;38.00;96270.00;;;;5053071;28;20566;-84
2022/06/27 11:03:09;;;;;;;0.80;0.80;;;37.80;46.70;37.90;96276.00;;;;5042782;28;20200;-84
2022/06/27 11:06:03;;;;;;;0.80;0.80;;;37.60;47.60;37.70;96279.00;;;;5055946;28;20683;-84
2022/06/27 11:08:38;;;;;;;2.08;1.25;;;37.50;46.60;37.60;96283.00;;;;5048813;28;20181;-84